Terminal Aerodrome Forecast
Issued by NWS Shreveport, LA

Home | Current Version | Previous Version | Text Only | Print | Product List | Glossary On
Versions: 1 2 3 4 5 6 7 8 9 10 11 12 13 14 15 16
000
FTUS44 KSHV 311700
TAFTYR
TAF
KTYR 311727Z 3118/0118 13010KT P6SM BKN100
      TEMPO 3121/3124 BKN040
     FM010000 15012G18KT P6SM OVC040
      TEMPO 0102/0106 5SM -RA BR OVC020
     FM010600 17014G22KT 3SM RA BR OVC008
     FM011400 24015G25KT P6SM VCTS OVC020CB=

USA.gov is the U.S. government's official web portal to all federal, state and local government web resources and services.